Time;durP1;ratioP1;P1;durP2;ratioP2;P2;SDS_P1;SDS_P2;PMS_P1;PMS_P2;Temp;Humidity;BMP_temperature;BMP_pressure;BME280_temperature;BME280_humidity;BME280_pressure;Samples;Min_cycle;Max_cycle;Signal;HPM_P1;HPM_P2
2023/06/06 00:01:25;;;;;;;12.90;9.27;;;;;;;14.00;100.00;100121.13;5134367;27;20404;-81
2023/06/06 00:04:09;;;;;;;11.57;9.35;;;;;;;14.06;100.00;100127.47;5117001;27;20138;-81
2023/06/06 00:06:54;;;;;;;12.32;8.75;;;;;;;14.24;100.00;100118.25;5135385;27;20087;-82
2023/06/06 00:09:38;;;;;;;14.95;9.20;;;;;;;13.90;100.00;100131.19;5134757;27;20043;-81
2023/06/06 00:12:24;;;;;;;12.30;9.15;;;;;;;14.03;100.00;100133.13;5133853;27;20096;-82
2023/06/06 00:15:13;;;;;;;14.02;10.35;;;;;;;14.12;100.00;100126.69;5118211;27;20038;-81
2023/06/06 00:17:58;;;;;;;16.65;12.48;;;;;;;13.76;100.00;100119.69;5132441;27;20050;-81
2023/06/06 00:20:43;;;;;;;16.75;13.77;;;;;;;14.12;100.00;100129.31;5134520;27;20079;-81
2023/06/06 00:23:27;;;;;;;18.45;15.18;;;;;;;14.22;99.88;100115.00;5135698;27;20116;-81
2023/06/06 00:26:11;;;;;;;18.10;13.13;;;;;;;13.75;100.00;100118.03;5129720;27;20083;-83
2023/06/06 00:28:55;;;;;;;17.00;12.73;;;;;;;13.79;100.00;100119.31;5134523;27;20042;-83
2023/06/06 00:31:39;;;;;;;16.67;12.48;;;;;;;14.05;100.00;100120.56;5137746;27;20119;-82
2023/06/06 00:34:23;;;;;;;16.70;11.15;;;;;;;14.04;100.00;100116.28;5135579;27;20093;-84
2023/06/06 00:37:07;;;;;;;14.65;11.15;;;;;;;14.13;100.00;100109.84;5118211;27;20080;-83
2023/06/06 00:39:51;;;;;;;12.77;10.07;;;;;;;14.06;100.00;100114.25;5136684;27;20065;-83
2023/06/06 00:42:35;;;;;;;11.70;9.27;;;;;;;13.95;100.00;100117.41;5133433;27;20092;-82
2023/06/06 00:45:19;;;;;;;11.00;7.35;;;;;;;13.47;100.00;100108.25;5133919;27;20163;-83
2023/06/06 00:48:04;;;;;;;10.40;7.97;;;;;;;13.97;100.00;100115.41;5128018;27;20051;-83
2023/06/06 00:50:50;;;;;;;9.27;8.00;;;;;;;13.84;100.00;100105.53;5129648;27;20349;-83
2023/06/06 00:53:35;;;;;;;10.98;8.00;;;;;;;13.79;100.00;100108.75;5132250;27;20077;-83
2023/06/06 00:56:22;;;;;;;9.82;7.60;;;;;;;13.71;100.00;100116.78;5133907;27;20050;-83
2023/06/06 00:59:07;;;;;;;8.93;7.03;;;;;;;13.66;100.00;100119.19;5133208;27;20645;-81
2023/06/06 01:01:51;;;;;;;10.02;7.63;;;;;;;13.49;100.00;100103.59;5128451;27;20071;-81
2023/06/06 01:04:43;;;;;;;12.48;8.10;;;;;;;13.41;100.00;100108.97;5130966;27;20046;-81
2023/06/06 01:07:29;;;;;;;10.65;7.35;;;;;;;13.39;100.00;100110.97;5126835;27;20077;-81
2023/06/06 01:10:15;;;;;;;9.63;7.68;;;;;;;13.50;100.00;100107.06;5132858;27;20041;-81
2023/06/06 01:13:11;;;;;;;9.45;7.28;;;;;;;13.61;100.00;100105.75;5130102;27;20038;-83
2023/06/06 01:16:01;;;;;;;13.95;7.47;;;;;;;13.84;100.00;100109.00;5127663;27;20050;-81
2023/06/06 01:18:49;;;;;;;10.90;8.70;;;;;;;13.32;100.00;100102.16;5133333;27;20496;-83
2023/06/06 01:21:44;;;;;;;10.40;7.57;;;;;;;13.61;100.00;100103.09;5132285;27;20064;-82
2023/06/06 01:24:28;;;;;;;9.57;7.70;;;;;;;13.56;100.00;100099.22;5129939;27;20537;-82
2023/06/06 01:27:13;;;;;;;12.02;8.00;;;;;;;13.70;100.00;100092.25;5134080;27;20038;-81
2023/06/06 01:30:02;;;;;;;11.90;8.65;;;;;;;13.35;100.00;100088.59;5129601;27;20037;-81
2023/06/06 01:33:24;;;;;;;9.98;8.00;;;;;;;13.66;100.00;100098.06;5134282;27;20415;-81
2023/06/06 01:37:03;;;;;;;12.30;8.27;;;;;;;13.13;100.00;100099.09;5133538;27;20416;-81
2023/06/06 01:39:49;;;;;;;10.75;8.77;;;;;;;13.48;100.00;100094.06;5057056;28;20507;-82
2023/06/06 01:42:42;;;;;;;11.35;8.68;;;;;;;13.62;100.00;100094.19;5136784;27;20380;-82
2023/06/06 01:45:29;;;;;;;9.47;7.97;;;;;;;13.41;100.00;100095.78;5134859;27;20046;-83
2023/06/06 01:48:13;;;;;;;12.73;9.25;;;;;;;13.34;100.00;100089.59;5133670;27;20564;-82
2023/06/06 01:50:58;;;;;;;12.57;9.57;;;;;;;13.35;100.00;100096.50;5132347;27;20073;-83
2023/06/06 01:53:42;;;;;;;13.35;9.13;;;;;;;12.67;100.00;100097.53;5134128;27;20069;-83
2023/06/06 01:56:28;;;;;;;11.18;9.55;;;;;;;13.10;100.00;100091.56;5137284;27;20491;-82
2023/06/06 01:59:11;;;;;;;12.77;9.90;;;;;;;13.34;100.00;100098.34;5124181;28;20034;-82
2023/06/06 02:01:56;;;;;;;11.02;8.73;;;;;;;13.39;100.00;100097.78;5137670;28;20042;-82
2023/06/06 02:04:41;;;;;;;10.93;8.63;;;;;;;13.14;100.00;100101.56;5145448;27;20072;-83
2023/06/06 02:07:26;;;;;;;11.25;8.75;;;;;;;13.18;100.00;100099.41;5141531;27;20076;-82
2023/06/06 02:10:10;;;;;;;11.93;9.55;;;;;;;13.49;100.00;100089.59;5144082;27;20045;-82
2023/06/06 02:12:54;;;;;;;12.20;9.10;;;;;;;12.77;100.00;100084.91;5138399;27;20045;-82
2023/06/06 02:15:38;;;;;;;11.05;9.20;;;;;;;12.94;100.00;100085.50;5140518;27;20050;-82
2023/06/06 02:18:23;;;;;;;13.05;9.95;;;;;;;13.29;100.00;100087.53;5137668;27;20111;-83
2023/06/06 02:21:08;;;;;;;12.77;10.43;;;;;;;13.13;100.00;100096.47;5143717;27;20037;-84
2023/06/06 02:23:52;;;;;;;14.38;11.25;;;;;;;13.31;100.00;100084.72;5137870;27;20041;-82
2023/06/06 02:26:36;;;;;;;13.32;11.60;;;;;;;13.08;100.00;100086.50;5139099;27;20049;-82
2023/06/06 02:29:24;;;;;;;15.93;11.45;;;;;;;13.03;100.00;100077.50;5138783;27;20111;-82
2023/06/06 02:32:10;;;;;;;16.55;12.13;;;;;;;12.97;100.00;100069.34;5122873;27;20046;-82
2023/06/06 02:34:55;;;;;;;14.57;12.05;;;;;;;12.72;100.00;100071.47;5130938;27;20038;-82
2023/06/06 02:37:39;;;;;;;15.02;12.20;;;;;;;12.95;100.00;100067.91;5138860;27;20046;-81
2023/06/06 02:40:23;;;;;;;18.13;11.70;;;;;;;12.72;100.00;100074.09;5138771;27;20470;-81
2023/06/06 02:43:07;;;;;;;15.63;12.32;;;;;;;12.61;100.00;100078.03;5139101;27;20416;-81
2023/06/06 02:45:52;;;;;;;15.90;12.73;;;;;;;12.90;100.00;100072.91;5139528;27;20042;-81
2023/06/06 02:48:36;;;;;;;19.25;12.20;;;;;;;12.86;100.00;100075.88;5137716;27;20077;-81
2023/06/06 02:51:22;;;;;;;17.55;12.57;;;;;;;12.77;100.00;100079.63;5138429;27;20118;-81
2023/06/06 02:54:06;;;;;;;17.08;12.20;;;;;;;13.11;100.00;100085.31;5138650;27;20042;-82
2023/06/06 02:56:50;;;;;;;13.88;10.88;;;;;;;12.74;100.00;100080.00;5135265;27;20458;-82
2023/06/06 02:59:35;;;;;;;15.85;12.10;;;;;;;12.74;100.00;100081.81;5138934;27;20157;-81
2023/06/06 03:02:19;;;;;;;15.05;12.00;;;;;;;13.04;100.00;100079.16;5138188;27;20046;-82
2023/06/06 03:05:04;;;;;;;17.10;11.70;;;;;;;13.07;100.00;100065.59;5137915;27;20388;-81
2023/06/06 03:07:48;;;;;;;17.08;11.57;;;;;;;13.21;100.00;100074.47;5138480;27;20396;-82
2023/06/06 03:10:32;;;;;;;16.98;10.73;;;;;;;13.23;100.00;100080.34;5122590;27;20065;-82
2023/06/06 03:13:16;;;;;;;14.80;11.07;;;;;;;13.00;100.00;100082.16;5137977;27;20242;-82
2023/06/06 03:16:01;;;;;;;14.57;11.25;;;;;;;12.70;100.00;100069.00;5131706;27;20508;-82
2023/06/06 03:18:46;;;;;;;16.48;11.35;;;;;;;12.72;100.00;100076.75;5131910;27;20149;-83
2023/06/06 03:21:31;;;;;;;13.45;10.13;;;;;;;12.58;100.00;100081.03;5121960;27;20041;-81
2023/06/06 03:24:15;;;;;;;12.07;9.07;;;;;;;12.74;100.00;100068.63;5139927;27;20034;-83
2023/06/06 03:27:00;;;;;;;10.40;9.13;;;;;;;12.80;100.00;100073.19;5135269;27;20046;-81
2023/06/06 03:29:44;;;;;;;11.98;8.82;;;;;;;12.98;100.00;100076.25;5132946;27;20045;-82
2023/06/06 03:32:30;;;;;;;12.48;9.00;;;;;;;12.89;100.00;100079.19;5118687;27;20034;-81
2023/06/06 03:35:17;;;;;;;12.15;9.32;;;;;;;12.77;100.00;100074.38;5134636;27;20149;-82
2023/06/06 03:38:02;;;;;;;12.40;9.98;;;;;;;12.51;100.00;100057.22;5117981;27;20049;-81
2023/06/06 03:40:45;;;;;;;11.77;9.63;;;;;;;12.49;100.00;100077.66;5134825;27;20042;-82
2023/06/06 03:43:30;;;;;;;13.00;9.60;;;;;;;12.73;100.00;100072.28;5132613;27;20042;-81
2023/06/06 03:46:14;;;;;;;10.85;9.13;;;;;;;12.84;100.00;100071.81;5134571;27;20447;-81
2023/06/06 03:48:58;;;;;;;10.27;8.70;;;;;;;12.97;100.00;100072.00;5132308;27;20152;-81
2023/06/06 03:51:42;;;;;;;11.68;9.23;;;;;;;13.05;100.00;100054.44;5135201;27;20042;-81
2023/06/06 03:54:26;;;;;;;12.68;9.30;;;;;;;12.68;100.00;100055.19;5132763;27;20087;-82
2023/06/06 03:57:10;;;;;;;14.55;9.35;;;;;;;12.39;100.00;100066.56;5134329;27;20517;-82
2023/06/06 03:59:55;;;;;;;13.55;9.55;;;;;;;12.92;100.00;100066.44;5118729;27;20069;-82
2023/06/06 04:02:39;;;;;;;14.07;9.45;;;;;;;12.83;100.00;100054.38;5134168;27;20080;-82
2023/06/06 04:05:23;;;;;;;15.18;10.05;;;;;;;12.92;100.00;100063.00;5132945;27;20377;-81
2023/06/06 04:08:08;;;;;;;11.05;9.00;;;;;;;13.04;100.00;100056.22;5129565;27;20038;-82
2023/06/06 04:10:52;;;;;;;11.27;8.55;;;;;;;13.08;100.00;100057.50;5135329;27;20571;-83
2023/06/06 04:13:36;;;;;;;15.98;11.55;;;;;;;12.59;100.00;100058.94;5128884;27;20162;-84
2023/06/06 04:16:20;;;;;;;17.88;11.90;;;;;;;12.11;100.00;100054.81;5135501;27;20042;-83
2023/06/06 04:19:04;;;;;;;18.45;12.32;;;;;;;12.67;100.00;100055.38;5134615;27;20404;-83
2023/06/06 04:21:48;;;;;;;18.85;11.50;;;;;;;12.63;100.00;100047.03;5117548;27;20038;-83
2023/06/06 04:24:32;;;;;;;21.75;11.68;;;;;;;12.31;100.00;100056.94;5126502;27;20054;-83
2023/06/06 04:27:18;;;;;;;15.23;11.27;;;;;;;12.41;100.00;100046.13;5131424;27;20100;-83
2023/06/06 04:30:02;;;;;;;14.45;10.43;;;;;;;12.55;100.00;100060.28;5134298;27;20054;-82
2023/06/06 04:32:45;;;;;;;20.48;12.15;;;;;;;12.72;100.00;100047.75;5130009;27;20050;-84
2023/06/06 04:35:30;;;;;;;21.20;14.07;;;;;;;12.69;100.00;100045.50;5117552;27;20118;-85
2023/06/06 04:38:18;;;;;;;19.45;13.55;;;;;;;12.98;100.00;100054.34;5113078;27;20061;-84
2023/06/06 04:41:04;;;;;;;18.88;13.52;;;;;;;12.94;100.00;100056.53;5130383;27;20046;-85
2023/06/06 04:43:49;;;;;;;19.25;13.85;;;;;;;12.80;100.00;100044.22;5118354;27;20038;-86
2023/06/06 04:46:33;;;;;;;22.42;16.13;;;;;;;12.61;100.00;100043.78;5116718;27;20400;-86
2023/06/06 04:49:19;;;;;;;23.75;16.10;;;;;;;12.94;100.00;100051.25;5131863;27;20114;-84
2023/06/06 04:52:08;;;;;;;22.33;15.82;;;;;;;12.41;100.00;100046.13;5118583;27;20488;-85
2023/06/06 04:54:55;;;;;;;19.30;13.63;;;;;;;12.68;100.00;100054.41;5134304;27;21961;-84
2023/06/06 04:57:40;;;;;;;16.70;12.18;;;;;;;12.50;100.00;100041.59;5133268;27;20416;-84
2023/06/06 05:00:25;;;;;;;18.90;13.05;;;;;;;12.65;100.00;100033.66;5132600;27;20069;-83
2023/06/06 05:03:09;;;;;;;22.90;15.27;;;;;;;12.22;100.00;100036.97;5133066;27;20038;-85
2023/06/06 05:05:53;;;;;;;20.92;15.05;;;;;;;12.08;100.00;100049.91;5130910;27;20446;-84
2023/06/06 05:08:41;;;;;;;23.92;16.33;;;;;;;12.21;100.00;100041.41;5130975;27;20045;-83
2023/06/06 05:11:25;;;;;;;22.73;16.17;;;;;;;11.96;100.00;100041.63;5133318;27;20127;-81
2023/06/06 05:14:09;;;;;;;21.05;14.57;;;;;;;12.55;100.00;100042.69;5132350;27;20046;-79
2023/06/06 05:16:54;;;;;;;21.45;14.57;;;;;;;12.84;100.00;100053.38;5133400;27;20046;-80
2023/06/06 05:19:41;;;;;;;21.98;15.35;;;;;;;12.72;100.00;100055.66;5117333;27;20038;-80
2023/06/06 05:22:26;;;;;;;18.98;12.65;;;;;;;12.22;100.00;100053.56;5126888;27;20037;-80
2023/06/06 05:25:10;;;;;;;18.73;13.05;;;;;;;12.53;100.00;100043.84;5133362;27;20046;-80
2023/06/06 05:27:55;;;;;;;17.92;11.77;;;;;;;12.65;100.00;100055.56;5131980;27;20164;-80
2023/06/06 05:30:39;;;;;;;14.65;11.15;;;;;;;12.67;100.00;100047.47;5132566;27;20046;-79
2023/06/06 05:33:27;;;;;;;16.42;12.02;;;;;;;12.71;100.00;100044.28;5131365;27;20543;-80
2023/06/06 05:36:11;;;;;;;17.67;12.88;;;;;;;12.49;100.00;100050.50;5133601;27;20108;-81
2023/06/06 05:38:55;;;;;;;17.30;11.52;;;;;;;12.74;100.00;100048.41;5131737;27;20046;-80
2023/06/06 05:41:40;;;;;;;16.80;12.68;;;;;;;12.68;100.00;100047.31;5116996;27;20046;-81
2023/06/06 05:44:23;;;;;;;15.63;11.77;;;;;;;13.03;100.00;100040.63;5125224;27;20118;-80
2023/06/06 05:47:07;;;;;;;19.25;12.82;;;;;;;13.10;100.00;100042.31;5135420;27;20050;-80
2023/06/06 05:49:51;;;;;;;17.70;12.35;;;;;;;13.04;100.00;100052.78;5136562;27;20041;-80
2023/06/06 05:52:35;;;;;;;18.38;13.60;;;;;;;12.80;100.00;100044.22;5137097;27;20069;-82
2023/06/06 05:55:33;;;;;;;19.27;13.90;;;;;;;12.46;100.00;100045.59;5138942;27;20119;-82
2023/06/06 05:58:17;;;;;;;21.10;12.93;;;;;;;12.47;100.00;100052.50;5131037;27;20075;-81
2023/06/06 06:01:01;;;;;;;19.00;13.15;;;;;;;12.89;100.00;100061.53;5134913;28;20038;-81
2023/06/06 06:03:48;;;;;;;19.30;13.77;;;;;;;12.92;100.00;100045.34;5134010;28;20046;-83
2023/06/06 06:06:32;;;;;;;18.35;12.30;;;;;;;12.99;100.00;100059.44;5120947;28;20037;-82
2023/06/06 06:09:17;;;;;;;19.02;13.40;;;;;;;12.90;100.00;100057.09;5133271;28;20529;-83
2023/06/06 06:12:01;;;;;;;22.35;14.45;;;;;;;13.27;100.00;100050.00;5134093;28;20130;-83
2023/06/06 06:14:45;;;;;;;16.83;12.05;;;;;;;12.49;100.00;100051.31;5116927;28;20539;-83
2023/06/06 06:17:29;;;;;;;15.60;10.55;;;;;;;12.95;100.00;100047.63;5133644;28;20160;-81
2023/06/06 06:20:15;;;;;;;13.88;9.18;;;;;;;13.02;100.00;100050.31;5129788;28;20046;-83
2023/06/06 06:23:00;;;;;;;11.88;9.13;;;;;;;12.34;100.00;100061.03;5132271;28;20392;-82
2023/06/06 06:25:45;;;;;;;14.23;7.25;;;;;;;12.82;100.00;100058.00;5132555;28;20122;-81
2023/06/06 06:28:29;;;;;;;11.85;8.30;;;;;;;13.43;100.00;100067.44;5133950;28;20412;-80
2023/06/06 06:31:13;;;;;;;13.77;10.55;;;;;;;13.46;100.00;100053.88;5137105;28;20060;-80
2023/06/06 06:33:57;;;;;;;15.75;11.30;;;;;;;13.31;100.00;100058.34;5128172;28;20042;-80
2023/06/06 06:36:41;;;;;;;14.90;11.10;;;;;;;13.12;100.00;100055.31;5118251;28;20504;-80
2023/06/06 06:39:26;;;;;;;12.98;9.15;;;;;;;13.32;100.00;100059.97;5114484;28;20039;-81
2023/06/06 06:42:10;;;;;;;11.75;8.73;;;;;;;13.23;100.00;100062.75;5137582;28;20408;-79
2023/06/06 06:44:54;;;;;;;15.55;11.07;;;;;;;13.48;100.00;100070.31;5131386;28;20050;-82
2023/06/06 06:47:39;;;;;;;14.30;10.10;;;;;;;13.39;100.00;100060.88;5126190;28;20123;-81
2023/06/06 06:50:23;;;;;;;12.45;9.55;;;;;;;13.47;100.00;100058.13;5128394;27;20037;-81
2023/06/06 06:53:09;;;;;;;16.23;9.20;;;;;;;13.76;100.00;100056.38;5135635;27;20054;-80
2023/06/06 06:55:54;;;;;;;11.05;8.90;;;;;;;13.70;100.00;100057.94;5121611;27;20046;-78
2023/06/06 06:58:39;;;;;;;12.25;9.02;;;;;;;13.75;100.00;100067.09;5136196;27;20123;-87
2023/06/06 07:01:27;;;;;;;11.85;8.70;;;;;;;14.00;100.00;100056.97;5131326;27;20061;-86
2023/06/06 07:04:11;;;;;;;12.60;8.57;;;;;;;14.18;100.00;100068.88;5134417;27;20038;-86
2023/06/06 07:06:55;;;;;;;12.02;7.85;;;;;;;14.15;100.00;100062.13;5130142;27;20505;-84
2023/06/06 07:09:39;;;;;;;14.10;8.15;;;;;;;13.96;100.00;100066.28;5134334;27;20050;-81
2023/06/06 07:12:23;;;;;;;10.05;6.82;;;;;;;14.45;100.00;100063.75;5115217;27;20050;-82
2023/06/06 07:15:08;;;;;;;9.13;6.88;;;;;;;14.29;100.00;100055.09;5129924;27;20050;-81
2023/06/06 07:17:54;;;;;;;10.45;6.75;;;;;;;14.34;100.00;100042.13;5116603;27;20561;-80
2023/06/06 07:20:38;;;;;;;8.30;6.38;;;;;;;14.11;100.00;100052.97;5138342;27;20062;-81
2023/06/06 07:23:22;;;;;;;9.13;6.53;;;;;;;14.22;100.00;100059.53;5136528;27;20038;-80
2023/06/06 07:26:06;;;;;;;10.30;6.75;;;;;;;14.39;100.00;100055.59;5136386;27;20154;-80
2023/06/06 07:28:50;;;;;;;8.80;6.80;;;;;;;14.09;100.00;100044.44;5123474;27;20385;-80
2023/06/06 07:31:34;;;;;;;15.68;7.05;;;;;;;14.14;100.00;100063.94;5115799;27;20456;-81
2023/06/06 07:34:18;;;;;;;13.20;7.32;;;;;;;14.14;100.00;100056.03;5136097;27;20074;-79
2023/06/06 07:37:02;;;;;;;12.90;7.97;;;;;;;14.22;100.00;100068.25;5130833;27;20400;-83
2023/06/06 07:39:46;;;;;;;10.40;7.28;;;;;;;14.52;100.00;100051.38;5130509;27;20050;-83
2023/06/06 07:42:31;;;;;;;9.57;7.60;;;;;;;14.51;100.00;100047.09;5133141;27;20088;-82
2023/06/06 07:45:16;;;;;;;12.20;7.40;;;;;;;14.80;100.00;100058.47;5134708;27;20042;-83
2023/06/06 07:48:03;;;;;;;12.45;8.15;;;;;;;14.42;100.00;100057.00;5132891;27;20108;-84
2023/06/06 07:50:47;;;;;;;13.18;7.57;;;;;;;14.66;100.00;100060.19;5128991;27;20772;-83
2023/06/06 07:53:31;;;;;;;9.48;7.38;;;;;;;14.80;100.00;100066.38;5130637;27;20142;-83
2023/06/06 07:56:16;;;;;;;8.98;6.63;;;;;;;15.07;100.00;100045.31;5135729;27;20127;-83
2023/06/06 07:59:02;;;;;;;10.82;7.28;;;;;;;14.62;100.00;100059.78;5135421;27;20535;-84
2023/06/06 08:01:46;;;;;;;11.00;7.47;;;;;;;14.77;100.00;100056.22;5131717;27;20086;-84
2023/06/06 08:04:30;;;;;;;;;;;;;;;14.86;100.00;100070.88;5119233;27;20042;-84
2023/06/06 08:07:15;;;;;;;11.48;7.82;;;;;;;14.98;100.00;100056.09;5132444;27;19918;-83
2023/06/06 08:09:59;;;;;;;13.57;8.40;;;;;;;14.67;100.00;100060.00;5135831;27;20442;-83
2023/06/06 08:12:42;;;;;;;9.02;6.70;;;;;;;13.91;100.00;100058.94;5118982;27;20038;-84
2023/06/06 08:15:27;;;;;;;12.27;7.25;;;;;;;14.12;100.00;100052.75;5135725;27;20038;-84
2023/06/06 08:18:15;;;;;;;8.75;6.85;;;;;;;14.99;100.00;100049.78;5135739;27;20058;-83
2023/06/06 08:20:59;;;;;;;11.60;7.63;;;;;;;14.84;100.00;100065.81;5129606;27;20077;-83
2023/06/06 08:23:43;;;;;;;11.60;7.43;;;;;;;15.10;100.00;100071.38;5130845;27;20046;-83
2023/06/06 08:26:27;;;;;;;11.15;8.10;;;;;;;14.90;100.00;100063.38;5114936;27;20095;-82
2023/06/06 08:29:11;;;;;;;10.13;8.07;;;;;;;15.18;100.00;100071.19;5132451;27;20099;-82
2023/06/06 08:31:55;;;;;;;9.10;6.80;;;;;;;15.39;100.00;100078.16;5132427;27;20038;-83
2023/06/06 08:34:39;;;;;;;9.00;7.28;;;;;;;14.89;100.00;100075.75;5133500;27;20409;-83
2023/06/06 08:37:23;;;;;;;9.00;7.13;;;;;;;15.05;100.00;100079.91;5113234;27;20127;-83
2023/06/06 08:40:09;;;;;;;11.45;6.60;;;;;;;14.89;100.00;100075.75;5130964;27;20038;-83
2023/06/06 08:42:56;;;;;;;10.43;7.95;;;;;;;14.33;100.00;100077.47;5134058;27;20046;-82
2023/06/06 08:45:43;;;;;;;10.52;7.93;;;;;;;14.38;100.00;100061.06;5132977;27;20420;-83
2023/06/06 08:48:28;;;;;;;12.63;8.05;;;;;;;14.36;100.00;100076.28;5131434;27;20076;-82
2023/06/06 08:51:13;;;;;;;11.77;7.60;;;;;;;14.52;100.00;100064.59;5132213;27;20030;-82
2023/06/06 08:53:59;;;;;;;11.45;7.55;;;;;;;14.74;100.00;100061.88;5131507;27;20038;-82
2023/06/06 08:56:44;;;;;;;9.80;8.48;;;;;;;14.28;100.00;100071.97;5132215;27;20096;-82
2023/06/06 08:59:29;;;;;;;10.07;7.82;;;;;;;14.70;100.00;100056.94;5132454;27;20041;-82
2023/06/06 09:02:13;;;;;;;11.40;8.52;;;;;;;14.61;100.00;100066.06;5117179;27;20140;-83
2023/06/06 09:04:58;;;;;;;14.35;8.80;;;;;;;14.86;100.00;100068.22;5132739;27;20099;-83
2023/06/06 09:07:43;;;;;;;10.77;8.55;;;;;;;14.94;100.00;100068.09;5132647;27;20064;-82
2023/06/06 09:10:26;;;;;;;10.55;8.10;;;;;;;14.87;100.00;100069.88;5130616;27;20042;-83
2023/06/06 09:13:10;;;;;;;9.35;7.72;;;;;;;15.07;100.00;100079.69;5116748;27;20033;-83
2023/06/06 09:15:54;;;;;;;9.85;7.45;;;;;;;15.13;100.00;100071.78;5133270;27;20070;-83
2023/06/06 09:18:38;;;;;;;11.75;7.80;;;;;;;15.39;100.00;100077.34;5133251;27;20046;-83
2023/06/06 09:21:22;;;;;;;9.90;7.10;;;;;;;15.44;100.00;100066.97;5132390;27;20038;-83
2023/06/06 09:24:06;;;;;;;10.23;7.25;;;;;;;15.84;100.00;100069.66;5117025;27;20079;-83
2023/06/06 09:26:50;;;;;;;12.20;7.50;;;;;;;15.36;100.00;100069.81;5131391;27;20129;-83
2023/06/06 09:29:39;;;;;;;9.45;7.07;;;;;;;15.66;100.00;100066.78;5131201;27;20080;-83
2023/06/06 09:32:28;;;;;;;11.55;8.50;;;;;;;15.97;100.00;100076.00;5133126;27;20156;-84
2023/06/06 09:35:16;;;;;;;11.35;9.27;;;;;;;16.04;100.00;100060.91;5132580;27;20057;-83
2023/06/06 09:38:08;;;;;;;10.30;7.43;;;;;;;16.21;99.90;100056.03;5130467;27;20460;-83
2023/06/06 09:40:52;;;;;;;8.95;7.32;;;;;;;15.78;100.00;100067.81;5130250;27;20110;-84
2023/06/06 09:43:37;;;;;;;10.02;6.35;;;;;;;15.70;100.00;100068.84;5117490;27;20046;-82
2023/06/06 09:46:22;;;;;;;8.98;6.93;;;;;;;16.12;99.30;100068.66;5130682;27;20092;-83
2023/06/06 09:49:10;;;;;;;9.55;6.15;;;;;;;16.43;99.09;100058.41;5132591;27;20122;-83
2023/06/06 09:51:55;;;;;;;9.30;6.97;;;;;;;16.65;97.59;100066.88;5132852;27;20460;-84
2023/06/06 09:54:43;;;;;;;12.35;7.40;;;;;;;15.74;99.27;100071.06;5132469;27;20046;-84
2023/06/06 09:57:28;;;;;;;9.23;6.35;;;;;;;16.18;98.59;100066.19;5129368;27;20104;-83
2023/06/06 10:00:15;;;;;;;8.95;7.50;;;;;;;15.61;99.90;100077.19;5128744;27;20042;-83
2023/06/06 10:03:01;;;;;;;7.70;6.90;;;;;;;16.29;98.78;100073.50;5131988;27;20096;-83
2023/06/06 10:05:46;;;;;;;7.95;6.90;;;;;;;16.48;97.97;100071.00;5132640;28;20046;-83
2023/06/06 10:08:33;;;;;;;8.90;6.50;;;;;;;16.47;97.22;100070.22;5132189;28;20046;-83
2023/06/06 10:11:20;;;;;;;8.48;6.75;;;;;;;16.85;95.31;100066.00;5114448;28;20091;-83
2023/06/06 10:14:08;;;;;;;7.70;6.60;;;;;;;16.87;96.18;100079.84;5129630;28;20049;-83
2023/06/06 10:16:53;;;;;;;7.70;6.90;;;;;;;15.76;98.22;100082.28;5132544;28;20053;-83
2023/06/06 10:19:39;;;;;;;9.05;7.75;;;;;;;16.12;98.80;100079.25;5129171;28;20126;-84
2023/06/06 10:22:23;;;;;;;9.18;7.57;;;;;;;15.99;98.85;100060.72;5130165;27;20042;-83
2023/06/06 10:25:15;;;;;;;13.60;9.38;;;;;;;15.69;99.20;100069.03;5132790;27;20102;-83
2023/06/06 10:28:22;;;;;;;13.98;8.48;;;;;;;15.36;100.00;100075.09;5120151;27;20094;-83
2023/06/06 10:31:20;;;;;;;9.88;7.15;;;;;;;15.44;100.00;100064.31;5133342;27;20408;-83
2023/06/06 10:34:09;;;;;;;8.75;5.78;;;;;;;15.62;100.00;100062.94;5134796;27;20042;-83
2023/06/06 10:36:54;;;;;;;5.95;5.20;;;;;;;15.79;100.00;100069.44;5136201;27;20149;-83
2023/06/06 10:39:41;;;;;;;8.40;4.68;;;;;;;15.68;100.00;100077.97;5136380;27;20046;-83
2023/06/06 10:42:41;;;;;;;5.60;4.93;;;;;;;16.03;100.00;100085.75;5130945;27;20038;-83
2023/06/06 10:45:41;;;;;;;5.65;4.50;;;;;;;15.92;100.00;100073.16;5119913;27;20054;-82
2023/06/06 10:48:56;;;;;;;4.40;4.00;;;;;;;16.17;100.00;100077.81;5140190;27;20052;-81
2023/06/06 10:51:39;;;;;;;4.72;4.03;;;;;;;16.72;100.00;100081.97;5137492;27;20092;-81
2023/06/06 10:54:27;;;;;;;5.13;4.00;;;;;;;16.92;98.91;100082.72;5145306;27;20043;-81
2023/06/06 10:57:16;;;;;;;5.63;4.20;;;;;;;17.14;97.82;100079.78;5143854;27;20079;-81
2023/06/06 11:00:01;;;;;;;7.63;5.40;;;;;;;17.37;95.75;100081.06;5140406;27;20113;-81
2023/06/06 11:02:46;;;;;;;10.80;5.45;;;;;;;16.92;96.05;100066.81;5127148;27;20042;-81
2023/06/06 11:05:31;;;;;;;11.48;5.40;;;;;;;17.63;94.71;100076.59;5118784;27;20504;-82
2023/06/06 11:08:15;;;;;;;5.72;5.13;;;;;;;17.31;94.59;100060.72;5117777;27;20049;-81
2023/06/06 11:11:19;;;;;;;10.10;5.22;;;;;;;17.09;94.24;100072.44;5115296;27;20045;-82
2023/06/06 11:14:06;;;;;;;5.70;4.57;;;;;;;17.26;93.97;100071.97;5124658;27;20396;-81
2023/06/06 11:16:57;;;;;;;5.95;4.47;;;;;;;16.66;96.07;100062.41;5125322;27;20553;-81
2023/06/06 11:19:43;;;;;;;4.95;4.45;;;;;;;17.45;94.80;100062.22;5128472;27;20590;-81
2023/06/06 11:22:28;;;;;;;7.35;4.72;;;;;;;16.89;95.05;100050.50;5127376;27;20095;-81
2023/06/06 11:25:13;;;;;;;8.75;5.85;;;;;;;16.40;95.24;100049.03;5132905;27;20091;-81
2023/06/06 11:28:00;;;;;;;7.50;6.10;;;;;;;16.74;94.62;100051.56;5128030;27;20061;-81
2023/06/06 11:30:44;;;;;;;7.38;5.68;;;;;;;16.76;96.18;100048.72;5112890;27;20071;-81
2023/06/06 11:33:28;;;;;;;7.13;5.45;;;;;;;16.62;96.33;100054.06;5131884;27;20050;-81
2023/06/06 11:36:13;;;;;;;7.68;5.07;;;;;;;17.04;95.57;100052.88;5122752;27;20478;-80
2023/06/06 11:38:58;;;;;;;8.13;5.93;;;;;;;16.92;94.99;100058.03;5108893;27;20093;-80
2023/06/06 11:41:48;;;;;;;7.82;6.05;;;;;;;16.66;94.72;100057.91;5108028;27;20081;-81
2023/06/06 11:44:36;;;;;;;8.13;7.30;;;;;;;16.74;95.46;100040.97;5114874;27;20034;-81
2023/06/06 11:47:30;;;;;;;8.32;6.72;;;;;;;16.72;94.61;100042.22;5128470;27;20116;-81
2023/06/06 11:50:26;;;;;;;;;;;;;;;16.99;94.45;100051.69;5122190;27;20633;-80
2023/06/06 11:53:10;;;;;;;12.73;8.32;;;;;;;16.30;94.29;100035.38;5128148;27;20400;-78
2023/06/06 11:55:54;;;;;;;12.88;8.95;;;;;;;16.61;94.67;100052.44;5128537;27;20069;-80
2023/06/06 11:58:40;;;;;;;9.30;7.63;;;;;;;16.80;93.66;100057.88;5128134;27;20057;-79
2023/06/06 12:01:25;;;;;;;8.13;7.10;;;;;;;17.53;92.26;100059.34;5129247;27;20141;-80
2023/06/06 12:04:09;;;;;;;9.57;7.78;;;;;;;17.76;89.59;100055.28;5106045;27;20078;-79
2023/06/06 12:06:56;;;;;;;11.35;6.10;;;;;;;16.61;91.70;100049.78;5127364;27;20038;-80
2023/06/06 12:09:40;;;;;;;6.15;5.55;;;;;;;17.32;89.97;100043.75;5124526;27;20046;-79
2023/06/06 12:12:24;;;;;;;4.90;4.40;;;;;;;16.74;89.58;100048.13;5113929;27;20082;-79
2023/06/06 12:15:08;;;;;;;5.90;4.65;;;;;;;17.94;88.13;100059.00;5128486;27;20042;-80
2023/06/06 12:17:52;;;;;;;5.30;4.50;;;;;;;17.67;88.10;100040.63;5128622;27;20050;-80
2023/06/06 12:20:36;;;;;;;5.32;4.80;;;;;;;17.82;87.71;100049.09;5124257;27;20046;-80
2023/06/06 12:23:27;;;;;;;;;;;;;;;18.31;85.89;100050.28;5125260;27;20042;-79
2023/06/06 12:26:12;;;;;;;4.85;4.30;;;;;;;17.74;87.20;100045.88;5106339;27;20368;-80
2023/06/06 12:29:00;;;;;;;5.18;4.68;;;;;;;17.79;86.68;100038.91;5127406;27;20088;-79
2023/06/06 12:31:45;;;;;;;4.75;4.25;;;;;;;17.54;86.68;100039.72;5109895;27;20488;-80
2023/06/06 12:34:49;;;;;;;6.13;4.80;;;;;;;17.32;87.64;100044.56;5131633;27;20428;-79
2023/06/06 12:37:35;;;;;;;5.90;4.22;;;;;;;17.63;87.52;100034.13;5128119;27;20074;-78